»·PEaware :: N62406 KBFL-KCMA

N62406 :: KBFL-KCMA

FLIGHT INFORMATION

Flight Status: Arrived
Operator: Privately registered:
United States
More flights under this callsign
Pilot: Jair P. (32054)
Aircraft: MOONEY M-20 201 202 205 220 ATS MSE
(M20P)
More flights by this aircraft type
Origin: KBFL Meadows
United States
Destination: KCMA Camarillo
United States
More flights between these airports :: More routes between these airports
Route:
File this flight plan on PilotEdge
Remarks:
Altitude:
(Current/Filed)
8,500ft
Speed:
(Current/Filed)
160kts
Departed: 20-Nov-20 02:48 PM
Arrived: 20-Nov-20 03:19 PM
Distance/Time
Traveled:
6799nm/0:31
Distance/Time
To Go:
Arrived

Flight Plot

Page will automatically refresh every two minutes.


Map Options




Map Legend


Flown Route
Filed Route
Departure Airport
Arrival Airport
Navaid (VOR, NDB)
Fix

Horizontal Profiles

Position Reports

Time Latitude Longitude Heading Altitude Ground
Speed
20-Nov-20 14:35 35.430492 -119.046745 134 486ft 0kts
20-Nov-20 14:36 35.430492 -119.046745 134 486ft 0kts
20-Nov-20 14:37 35.430492 -119.046745 134 486ft 0kts
20-Nov-20 14:38 35.430492 -119.046745 134 486ft 0kts
20-Nov-20 14:39 35.430492 -119.046745 134 486ft 0kts
20-Nov-20 14:40 35.430492 -119.046745 134 486ft 0kts
20-Nov-20 14:41 35.430492 -119.046745 134 486ft 0kts
20-Nov-20 14:42 35.428906 -119.047916 151 481ft 13kts
20-Nov-20 14:43 35.425480 -119.044146 210 472ft 9kts
20-Nov-20 14:44 35.425333 -119.044450 259 472ft 0kts
20-Nov-20 14:45 35.425333 -119.044450 259 472ft 0kts
20-Nov-20 14:46 35.425333 -119.044450 259 472ft 0kts
20-Nov-20 14:47 35.435487 -119.057938 321 825ft 110kts
20-Nov-20 14:48 35.433450 -119.086399 168 2161ft 143kts
20-Nov-20 14:49 35.407912 -119.044290 123 2933ft 165kts
20-Nov-20 14:50 35.373630 -119.017664 207 3434ft 172kts
20-Nov-20 14:51 35.329518 -119.041791 176 3934ft 178kts
20-Nov-20 14:52 35.281907 -119.026200 164 4596ft 170kts
20-Nov-20 14:53 35.237331 -119.010643 164 5590ft 163kts
20-Nov-20 14:54 35.193838 -118.995455 164 6592ft 162kts
20-Nov-20 14:55 35.150525 -118.981543 171 7590ft 160kts
20-Nov-20 14:56 35.107639 -118.967542 164 8590ft 158kts
20-Nov-20 14:57 35.065484 -118.952794 164 9592ft 155kts
20-Nov-20 14:58 35.018242 -118.936230 164 9517ft 187kts
20-Nov-20 14:59 34.967753 -118.918550 164 9499ft 189kts
20-Nov-20 15:00 34.916940 -118.901100 166 9498ft 189kts
20-Nov-20 15:01 34.866035 -118.885159 166 9499ft 188kts
20-Nov-20 15:02 34.815561 -118.869344 166 9498ft 186kts
20-Nov-20 15:03 34.765302 -118.853579 166 9500ft 186kts
20-Nov-20 15:05 34.717618 -118.857401 224 9501ft 184kts
20-Nov-20 15:06 34.667889 -118.867040 182 9501ft 186kts
20-Nov-20 15:07 34.616576 -118.873336 191 9502ft 186kts
20-Nov-20 15:08 34.561289 -118.876916 181 8583ft 206kts
20-Nov-20 15:09 34.503545 -118.878173 181 7584ft 207kts
20-Nov-20 15:10 34.446187 -118.879398 181 6592ft 206kts
20-Nov-20 15:11 34.389069 -118.880600 181 5577ft 199kts
20-Nov-20 15:12 34.337206 -118.884530 206 5399ft 170kts
20-Nov-20 15:13 34.319587 -118.936831 230 4980ft 182kts
20-Nov-20 15:14 34.287442 -118.984567 231 4482ft 183kts
20-Nov-20 15:15 34.255770 -119.019195 204 2132ft 121kts
20-Nov-20 15:16 34.227733 -119.025063 189 1057ft 87kts
20-Nov-20 15:17 34.213503 -119.049839 268 670ft 101kts
20-Nov-20 15:18 34.213665 -119.078312 269 192ft 74kts
20-Nov-20 15:19 34.212865 -119.090839 198 74ft 0kts
20-Nov-20 15:20 34.211864 -119.090875 109 75ft 1kts
20-Nov-20 15:21 34.210981 -119.091587 270 73ft 17kts
20-Nov-20 15:22 0.000407 0.013975 359 3ft 0kts
20-Nov-20 15:22 0.000407 0.013975 359 3ft 0kts
20-Nov-20 15:24 0.000407 0.013975 359 3ft 0kts
20-Nov-20 15:24 0.000407 0.013975 359 3ft 0kts
20-Nov-20 15:26 0.000407 0.013975 359 3ft 0kts
20-Nov-20 15:26 0.000407 0.013975 359 3ft 0kts
20-Nov-20 15:28 0.000407 0.013975 359 3ft 0kts
20-Nov-20 15:28 0.000407 0.013975 359 3ft 0kts
20-Nov-20 15:29 0.000407 0.013975 359 3ft 0kts
20-Nov-20 15:30 0.000407 0.013975 359 3ft 0kts

Navigation Log

Ident Type
Flight plan parsing failed, navigation log unavailable